Time;durP1;ratioP1;P1;durP2;ratioP2;P2;SDS_P1;SDS_P2;PMS_P1;PMS_P2;Temp;Humidity;BMP_temperature;BMP_pressure;BME280_temperature;BME280_humidity;BME280_pressure;Samples;Min_cycle;Max_cycle;Signal;HPM_P1;HPM_P2
2021/05/06 00:02:28;;;;;;;;;;;;;;;;;;5075940;28;19943;-66
2021/05/06 00:11:09;;;;;;;;;;;;;;;;;;5069433;28;19928;-67
2021/05/06 00:32:51;;;;;;;;;;;;;;;;;;5073047;22;19970;-66
2021/05/06 00:35:17;;;;;;;;;;;;;;;;;;5042924;28;19970;-66
2021/05/06 00:37:54;;;;;;;;;;;;;;;;;;5041697;28;19975;-66
2021/05/06 00:40:21;;;;;;;;;;;;;;;;;;5050946;28;19925;-66
2021/05/06 00:43:10;;;;;;;;;;;;;;;;;;5048659;28;20273;-66
2021/05/06 00:56:57;;;;;;;;;;;;;;;;;;5022022;28;19944;-66
2021/05/06 00:59:44;;;;;;;;;;;;;;;;;;5052292;28;20306;-65
2021/05/06 01:04:53;;;;;;;;;;;;;;;;;;5061833;28;19976;-65
2021/05/06 01:07:42;;;;;;;;;;;;;;;;;;5060995;28;20349;-66
2021/05/06 01:10:28;;;;;;;;;;;;;;;;;;5055160;28;19928;-66
2021/05/06 01:12:55;;;;;;;;;;;;;;;;;;5040623;28;19932;-66
2021/05/06 01:15:21;;;;;;;;;;;;;;;;;;5048426;28;20400;-65
2021/05/06 01:17:48;;;;;;;;;;;;;;;;;;5042891;28;20012;-65
2021/05/06 01:20:14;;;;;;;;;;;;;;;;;;5045221;28;19925;-64
2021/05/06 01:22:41;;;;;;;;;;;;;;;;;;5051763;28;19964;-65
2021/05/06 01:25:07;;;;;;;;;;;;;;;;;;5046772;28;19936;-66
2021/05/06 01:27:39;;;;;;;;;;;;;;;;;;5049341;28;19932;-65
2021/05/06 01:30:12;;;;;;;;;;;;;;;;;;5042521;28;19932;-66
2021/05/06 01:32:41;;;;;;;;;;;;;;;;;;5043151;28;19975;-65
2021/05/06 01:35:12;;;;;;;;;;;;;;;;;;5049178;28;19928;-66
2021/05/06 01:37:46;;;;;;;;;;;;;;;;;;5046024;28;19978;-66
2021/05/06 01:43:00;;;;;;;;;;;;;;;;;;5041067;28;20300;-65
2021/05/06 01:45:47;;;;;;;;;;;;;;;;;;5049417;28;20265;-66
2021/05/06 01:48:34;;;;;;;;;;;;;;;;;;5049301;28;20076;-65
2021/05/06 01:51:19;;;;;;;;;;;;;;;;;;5051821;28;19925;-66
2021/05/06 01:59:21;;;;;;;;;;;;;;;;;;5025625;28;19921;-66
2021/05/06 02:01:48;;;;;;;;;;;;;;;;;;5049349;28;19948;-66
2021/05/06 02:04:14;;;;;;;;;;;;;;;;;;5050303;28;19971;-66
2021/05/06 02:06:41;;;;;;;;;;;;;;;;;;5039676;28;20034;-66
2021/05/06 02:09:07;;;;;;;;;;;;;;;;;;5049497;28;20282;-67
2021/05/06 02:11:34;;;;;;;;;;;;;;;;;;5044004;28;19933;-66
2021/05/06 02:14:00;;;;;;;;;;;;;;;;;;5038714;28;20024;-66
2021/05/06 02:16:33;;;;;;;;;;;;;;;;;;5044803;28;20016;-66
2021/05/06 02:19:01;;;;;;;;;;;;;;;;;;5050862;28;19932;-66
2021/05/06 02:21:27;;;;;;;;;;;;;;;;;;5052727;28;19925;-66
2021/05/06 02:23:54;;;;;;;;;;;;;;;;;;5051909;28;20437;-66
2021/05/06 02:26:20;;;;;;;;;;;;;;;;;;5051101;28;20071;-67
2021/05/06 02:28:47;;;;;;;;;;;;;;;;;;5045203;28;19967;-66
2021/05/06 02:31:14;;;;;;;;;;;;;;;;;;5044053;28;19931;-66
2021/05/06 02:33:40;;;;;;;;;;;;;;;;;;5045577;28;19925;-66
2021/05/06 02:36:07;;;;;;;;;;;;;;;;;;5044036;28;19978;-66
2021/05/06 02:38:33;;;;;;;;;;;;;;;;;;5049362;28;19970;-66
2021/05/06 02:41:00;;;;;;;;;;;;;;;;;;5045388;28;19933;-66
2021/05/06 02:43:26;;;;;;;;;;;;;;;;;;5048106;28;20002;-66
2021/05/06 02:45:52;;;;;;;;;;;;;;;;;;5048201;28;20330;-67
2021/05/06 02:48:19;;;;;;;;;;;;;;;;;;5048985;28;19924;-66
2021/05/06 02:50:52;;;;;;;;;;;;;;;;;;5044886;28;20059;-66
2021/05/06 02:53:21;;;;;;;;;;;;;;;;;;5038488;28;19932;-66
2021/05/06 02:55:56;;;;;;;;;;;;;;;;;;5050275;28;20139;-66
2021/05/06 02:58:37;;;;;;;;;;;;;;;;;;5043277;28;19924;-66
2021/05/06 03:03:49;;;;;;;;;;;;;;;;;;5046628;28;20392;-66
2021/05/06 03:06:19;;;;;;;;;;;;;;;;;;5044432;28;19951;-65
2021/05/06 03:08:49;;;;;;;;;;;;;;;;;;5046233;28;19925;-66
2021/05/06 03:11:33;;;;;;;;;;;;;;;;;;5040494;28;19925;-66
2021/05/06 03:14:26;;;;;;;;;;;;;;;;;;5043430;28;20399;-66
2021/05/06 03:22:43;;;;;;;;;;;;;;;;;;5044418;28;19924;-66
2021/05/06 03:25:12;;;;;;;;;;;;;;;;;;5044165;28;20015;-65
2021/05/06 03:27:44;;;;;;;;;;;;;;;;;;5043054;28;20274;-65
2021/05/06 03:30:26;;;;;;;;;;;;;;;;;;5046372;28;19933;-65
2021/05/06 03:33:00;;;;;;;;;;;;;;;;;;5048571;28;19925;-65
2021/05/06 03:35:43;;;;;;;;;;;;;;;;;;5041946;28;20389;-65
2021/05/06 03:43:49;;;;;;;;;;;;;;;;;;5038682;28;20454;-66
2021/05/06 03:46:46;;;;;;;;;;;;;;;;;;5050968;28;19925;-65
2021/05/06 03:49:33;;;;;;;;;;;;;;;;;;5047357;28;19925;-65
2021/05/06 04:17:07;;;;;;;;;;;;;;;;;;5029219;28;20377;-68
2021/05/06 04:27:53;;;;;;;;;;;;;;;;;;5052442;28;19958;-68
2021/05/06 04:30:39;;;;;;;;;;;;;;;;;;5053147;28;19925;-67
2021/05/06 04:35:53;;;;;;;;;;;;;;;;;;5049474;28;19978;-67
2021/05/06 04:38:22;;;;;;;;;;;;;;;;;;5053159;28;19982;-68
2021/05/06 04:44:38;;;;;;;;;;;;;;;;;;4991191;28;20036;-67
2021/05/06 04:55:10;;;;;;;;;;;;;;;;;;5047432;28;19920;-67
2021/05/06 05:05:54;;;;;;;;;;;;;;;;;;5044126;28;20050;-68
2021/05/06 05:08:20;;;;;;;;;;;;;;;;;;5052082;28;19968;-66
2021/05/06 05:11:02;;;;;;;;;;;;;;;;;;5052594;28;20019;-67
2021/05/06 05:13:42;;;;;;;;;;;;;;;;;;5051467;28;19929;-68
2021/05/06 05:18:55;;;;;;;;;;;;;;;;;;5051568;28;20023;-67
2021/05/06 05:23:22;;;;;;;;;;;;;;;;;;5049006;28;19935;-67
2021/05/06 05:24:17;;;;;;;;;;;;;;;;;;5052061;28;20029;-68
2021/05/06 05:26:44;;;;;;;;;;;;;;;;;;5046558;28;20310;-67
2021/05/06 05:29:10;;;;;;;;;;;;;;;;;;5049365;28;19925;-68
2021/05/06 05:31:37;;;;;;;;;;;;;;;;;;5049378;28;20015;-67
2021/05/06 05:34:15;;;;;;;;;;;;;;;;;;5047967;28;19931;-67
2021/05/06 05:36:41;;;;;;;;;;;;;;;;;;5046725;28;19936;-67
2021/05/06 05:39:12;;;;;;;;;;;;;;;;;;5048573;28;20015;-67
2021/05/06 05:55:31;;;;;;;;;;;;;;;;;;5049474;28;19927;-68
2021/05/06 05:57:57;;;;;;;;;;;;;;;;;;5051504;28;20011;-66
2021/05/06 06:00:24;;;;;;;;;;;;;;;;;;5051134;28;20393;-67
2021/05/06 06:02:51;;;;;;;;;;;;;;;;;;5049889;28;19925;-67
2021/05/06 06:05:18;;;;;;;;;;;;;;;;;;5049950;28;19978;-68
2021/05/06 06:07:44;;;;;;;;;;;;;;;;;;5054444;28;21637;-68
2021/05/06 06:10:11;;;;;;;;;;;;;;;;;;5052661;28;19935;-68
2021/05/06 06:12:37;;;;;;;;;;;;;;;;;;5058100;28;19929;-67
2021/05/06 06:15:05;;;;;;;;;;;;;;;;;;5053102;28;20015;-68
2021/05/06 06:17:36;;;;;;;;;;;;;;;;;;5051936;28;19987;-67
2021/05/06 06:20:03;;;;;;;;;;;;;;;;;;5055812;28;19983;-66
2021/05/06 06:22:31;;;;;;;;;;;;;;;;;;5047440;28;19973;-66
2021/05/06 06:24:57;;;;;;;;;;;;;;;;;;5052020;28;20388;-65
2021/05/06 06:27:25;;;;;;;;;;;;;;;;;;5050242;28;20192;-67
2021/05/06 06:29:52;;;;;;;;;;;;;;;;;;5050908;28;19933;-68
2021/05/06 06:32:19;;;;;;;;;;;;;;;;;;5074910;22;19931;-69
2021/05/06 06:34:47;;;;;;;;;;;;;;;;;;5067175;28;19925;-70
2021/05/06 06:37:15;;;;;;;;;;;;;;;;;;5057198;28;20092;-68
2021/05/06 06:39:43;;;;;;;;;;;;;;;;;;5057629;28;19936;-70
2021/05/06 06:42:09;;;;;;;;;;;;;;;;;;5055144;28;20296;-70
2021/05/06 06:44:36;;;;;;;;;;;;;;;;;;5059598;28;19924;-70
2021/05/06 06:47:03;;;;;;;;;;;;;;;;;;5060567;28;20308;-70
2021/05/06 06:49:32;;;;;;;;;;;;;;;;;;5058338;28;20838;-69
2021/05/06 06:51:59;;;;;;;;;;;;;;;;;;5060687;28;19924;-70
2021/05/06 06:54:26;;;;;;;;;;;;;;;;;;5059936;28;20273;-69
2021/05/06 06:56:53;;;;;;;;;;;;;;;;;;5059688;28;19928;-68
2021/05/06 06:59:19;;;;;;;;;;;;;;;;;;5062256;28;19928;-71
2021/05/06 07:01:46;;;;;;;;;;;;;;;;;;5066650;28;19925;-69
2021/05/06 07:04:12;;;;;;;;;;;;;;;;;;5063137;28;20043;-70
2021/05/06 07:06:39;;;;;;;;;;;;;;;;;;5055245;28;19925;-69
2021/05/06 07:09:08;;;;;;;;;;;;;;;;;;5061170;28;19933;-68
2021/05/06 07:11:34;;;;;;;;;;;;;;;;;;5062668;28;19925;-69
2021/05/06 07:14:01;;;;;;;;;;;;;;;;;;5067687;28;19932;-69
2021/05/06 07:16:27;;;;;;;;;;;;;;;;;;5062409;28;20373;-69
2021/05/06 07:18:56;;;;;;;;;;;;;;;;;;5064712;28;19924;-70
2021/05/06 07:21:22;;;;;;;;;;;;;;;;;;5066021;28;19936;-70
2021/05/06 07:23:49;;;;;;;;;;;;;;;;;;5066898;28;19931;-67
2021/05/06 07:26:15;;;;;;;;;;;;;;;;;;5062637;28;19931;-67
2021/05/06 07:28:42;;;;;;;;;;;;;;;;;;5064926;28;19932;-67
2021/05/06 07:31:09;;;;;;;;;;;;;;;;;;5055576;28;19971;-67
2021/05/06 07:33:36;;;;;;;;;;;;;;;;;;5065322;28;19932;-66
2021/05/06 07:36:02;;;;;;;;;;;;;;;;;;5064966;28;19969;-68
2021/05/06 07:38:30;;;;;;;;;;;;;;;;;;5066846;28;19958;-68
2021/05/06 07:40:58;;;;;;;;;;;;;;;;;;5055551;28;20411;-68
2021/05/06 07:43:24;;;;;;;;;;;;;;;;;;5061574;28;19972;-66
2021/05/06 07:45:51;;;;;;;;;;;;;;;;;;5061646;28;20273;-68
2021/05/06 07:48:17;;;;;;;;;;;;;;;;;;5058962;28;19932;-67
2021/05/06 07:50:44;;;;;;;;;;;;;;;;;;5060634;28;20407;-67
2021/05/06 07:53:12;;;;;;;;;;;;;;;;;;5062119;28;19924;-67
2021/05/06 07:55:38;;;;;;;;;;;;;;;;;;5056344;28;19931;-67
2021/05/06 07:58:05;;;;;;;;;;;;;;;;;;5060461;28;20019;-66
2021/05/06 08:00:31;;;;;;;;;;;;;;;;;;5059083;28;19935;-66
2021/05/06 08:02:58;;;;;;;;;;;;;;;;;;5061176;28;19976;-67
2021/05/06 08:05:24;;;;;;;;;;;;;;;;;;5059977;28;20027;-66
2021/05/06 08:07:51;;;;;;;;;;;;;;;;;;5056339;28;19939;-66
2021/05/06 08:10:17;;;;;;;;;;;;;;;;;;5058793;28;19924;-67
2021/05/06 08:12:44;;;;;;;;;;;;;;;;;;5061847;28;19925;-71
2021/05/06 08:15:10;;;;;;;;;;;;;;;;;;5052824;28;19924;-69
2021/05/06 08:17:37;;;;;;;;;;;;;;;;;;5057261;28;20027;-68
2021/05/06 08:20:05;;;;;;;;;;;;;;;;;;5056430;28;19925;-68
2021/05/06 08:22:33;;;;;;;;;;;;;;;;;;5057130;28;19925;-68
2021/05/06 08:25:00;;;;;;;;;;;;;;;;;;5063160;28;19925;-66
2021/05/06 08:27:26;;;;;;;;;;;;;;;;;;5060743;28;19924;-67
2021/05/06 08:29:53;;;;;;;;;;;;;;;;;;5064524;28;19928;-67
2021/05/06 08:32:21;;;;;;;;;;;;;;;;;;5054688;28;19979;-67
2021/05/06 08:34:49;;;;;;;;;;;;;;;;;;5062728;28;20384;-70
2021/05/06 08:37:15;;;;;;;;;;;;;;;;;;5057577;28;19924;-67
2021/05/06 08:39:42;;;;;;;;;;;;;;;;;;5063931;28;20069;-67
2021/05/06 08:42:09;;;;;;;;;;;;;;;;;;5060651;28;20400;-70
2021/05/06 08:44:37;;;;;;;;;;;;;;;;;;5058409;28;20379;-69
2021/05/06 08:47:04;;;;;;;;;;;;;;;;;;5061182;28;19924;-67
2021/05/06 08:49:31;;;;;;;;;;;;;;;;;;5060191;28;20375;-67
2021/05/06 08:51:57;;;;;;;;;;;;;;;;;;5061678;28;19925;-69
2021/05/06 08:54:26;;;;;;;;;;;;;;;;;;5062148;28;20396;-66
2021/05/06 08:56:53;;;;;;;;;;;;;;;;;;5058903;28;19987;-68
2021/05/06 08:59:19;;;;;;;;;;;;;;;;;;5062566;28;20011;-67
2021/05/06 09:01:47;;;;;;;;;;;;;;;;;;5064022;28;20009;-67
2021/05/06 09:04:13;;;;;;;;;;;;;;;;;;5063386;28;19925;-68
2021/05/06 09:06:40;;;;;;;;;;;;;;;;;;5067504;28;19932;-69
2021/05/06 09:09:06;;;;;;;;;;;;;;;;;;5060650;28;19971;-67
2021/05/06 09:11:33;;;;;;;;;;;;;;;;;;5058569;28;20003;-67
2021/05/06 09:13:59;;;;;;;;;;;;;;;;;;5064359;28;19931;-67
2021/05/06 09:16:26;;;;;;;;;;;;;;;;;;5065742;28;19924;-66
2021/05/06 09:18:52;;;;;;;;;;;;;;;;;;5063742;28;19929;-68
2021/05/06 09:21:19;;;;;;;;;;;;;;;;;;5064237;28;19932;-70
2021/05/06 09:23:46;;;;;;;;;;;;;;;;;;5065256;28;19943;-68
2021/05/06 09:26:13;;;;;;;;;;;;;;;;;;5058252;28;19964;-67
2021/05/06 09:28:39;;;;;;;;;;;;;;;;;;5067922;28;19940;-67
2021/05/06 09:31:06;;;;;;;;;;;;;;;;;;5061829;28;19932;-68
2021/05/06 09:33:42;;;;;;;;;;;;;;;;;;5065415;28;20609;-67
2021/05/06 09:36:10;;;;;;;;;;;;;;;;;;5062713;28;20388;-67
2021/05/06 09:38:56;;;;;;;;;;;;;;;;;;5065928;28;19925;-67
2021/05/06 09:41:25;;;;;;;;;;;;;;;;;;5068194;28;19924;-67
2021/05/06 09:43:53;;;;;;;;;;;;;;;;;;5056976;28;19970;-67
2021/05/06 09:46:20;;;;;;;;;;;;;;;;;;5059519;28;19925;-68
2021/05/06 09:48:47;;;;;;;;;;;;;;;;;;5062350;28;19955;-67
2021/05/06 09:51:14;;;;;;;;;;;;;;;;;;5056913;28;19932;-68
2021/05/06 09:53:40;;;;;;;;;;;;;;;;;;5061454;28;20453;-69
2021/05/06 09:56:07;;;;;;;;;;;;;;;;;;5061868;28;20404;-70
2021/05/06 09:58:34;;;;;;;;;;;;;;;;;;5063228;28;20360;-71
2021/05/06 10:01:00;;;;;;;;;;;;;;;;;;5066162;28;20505;-70
2021/05/06 10:03:27;;;;;;;;;;;;;;;;;;5063261;28;19931;-70
2021/05/06 10:05:53;;;;;;;;;;;;;;;;;;5061947;28;19990;-69
2021/05/06 10:08:20;;;;;;;;;;;;;;;;;;5061893;28;19939;-67
2021/05/06 10:10:46;;;;;;;;;;;;;;;;;;5067180;28;20019;-70
2021/05/06 10:13:13;;;;;;;;;;;;;;;;;;5055975;28;19925;-70
2021/05/06 10:15:39;;;;;;;;;;;;;;;;;;5053055;28;20001;-70
2021/05/06 10:18:06;;;;;;;;;;;;;;;;;;5055584;28;19932;-70
2021/05/06 10:20:32;;;;;;;;;;;;;;;;;;5057919;28;20453;-73
2021/05/06 10:22:59;;;;;;;;;;;;;;;;;;5060121;28;20517;-70
2021/05/06 10:25:25;;;;;;;;;;;;;;;;;;5061020;28;19932;-70
2021/05/06 10:27:52;;;;;;;;;;;;;;;;;;5058097;28;19940;-71
2021/05/06 10:30:18;;;;;;;;;;;;;;;;;;5062852;28;20015;-70
2021/05/06 10:32:47;;;;;;;;;;;;;;;;;;5059234;28;19933;-70
2021/05/06 10:35:19;;;;;;;;;;;;;;;;;;5057415;28;20019;-70
2021/05/06 10:37:47;;;;;;;;;;;;;;;;;;5061635;28;19932;-67
2021/05/06 10:40:17;;;;;;;;;;;;;;;;;;5063250;28;19975;-69
2021/05/06 10:42:44;;;;;;;;;;;;;;;;;;5062061;28;19928;-67
2021/05/06 10:45:10;;;;;;;;;;;;;;;;;;5061578;28;20331;-68
2021/05/06 10:47:37;;;;;;;;;;;;;;;;;;5053923;28;19929;-67
2021/05/06 10:50:03;;;;;;;;;;;;;;;;;;5060595;28;19969;-67
2021/05/06 10:52:30;;;;;;;;;;;;;;;;;;5058194;28;19932;-67
2021/05/06 10:54:56;;;;;;;;;;;;;;;;;;5059294;28;19924;-69
2021/05/06 10:57:24;;;;;;;;;;;;;;;;;;5056261;28;19924;-71
2021/05/06 10:59:51;;;;;;;;;;;;;;;;;;5063427;28;20384;-68
2021/05/06 11:02:17;;;;;;;;;;;;;;;;;;5057996;28;20018;-68
2021/05/06 11:04:44;;;;;;;;;;;;;;;;;;5063576;28;20380;-68
2021/05/06 11:07:10;;;;;;;;;;;;;;;;;;5058832;28;20019;-69
2021/05/06 11:09:37;;;;;;;;;;;;;;;;;;5063225;28;19932;-70
2021/05/06 11:12:03;;;;;;;;;;;;;;;;;;5064507;28;20023;-68
2021/05/06 11:14:30;;;;;;;;;;;;;;;;;;5058754;28;20411;-67
2021/05/06 11:16:56;;;;;;;;;;;;;;;;;;5057484;28;19977;-69
2021/05/06 11:19:23;;;;;;;;;;;;;;;;;;5060883;28;19999;-67
2021/05/06 11:21:50;;;;;;;;;;;;;;;;;;5059079;28;19970;-70
2021/05/06 11:24:17;;;;;;;;;;;;;;;;;;5060906;28;19925;-69
2021/05/06 11:26:43;;;;;;;;;;;;;;;;;;5066251;28;19986;-69
2021/05/06 11:29:10;;;;;;;;;;;;;;;;;;5061745;28;19935;-70
2021/05/06 11:31:36;;;;;;;;;;;;;;;;;;5064714;28;20399;-68
2021/05/06 11:34:03;;;;;;;;;;;;;;;;;;5059081;28;20357;-69
2021/05/06 11:36:29;;;;;;;;;;;;;;;;;;5058869;28;19924;-69
2021/05/06 11:38:56;;;;;;;;;;;;;;;;;;5063729;28;19932;-70
2021/05/06 11:41:25;;;;;;;;;;;;;;;;;;5058851;28;19940;-70
2021/05/06 11:43:51;;;;;;;;;;;;;;;;;;5060356;28;19955;-70
2021/05/06 11:46:18;;;;;;;;;;;;;;;;;;5062268;28;19964;-69
2021/05/06 11:48:44;;;;;;;;;;;;;;;;;;5061936;28;19924;-70
2021/05/06 11:51:11;;;;;;;;;;;;;;;;;;5059879;28;19969;-70
2021/05/06 11:53:37;;;;;;;;;;;;;;;;;;5060583;28;19995;-69
2021/05/06 11:56:04;;;;;;;;;;;;;;;;;;5060902;28;19931;-67
2021/05/06 11:58:30;;;;;;;;;;;;;;;;;;5058117;28;21451;-69
2021/05/06 12:00:57;;;;;;;;;;;;;;;;;;5061249;28;20003;-69
2021/05/06 12:03:23;;;;;;;;;;;;;;;;;;5061499;28;20292;-70
2021/05/06 12:05:50;;;;;;;;;;;;;;;;;;5060988;28;19925;-68
2021/05/06 12:08:16;;;;;;;;;;;;;;;;;;5054685;28;19956;-66
2021/05/06 12:10:43;;;;;;;;;;;;;;;;;;5060814;28;19978;-69
2021/05/06 12:13:10;;;;;;;;;;;;;;;;;;5061508;28;19929;-68
2021/05/06 12:15:36;;;;;;;;;;;;;;;;;;5062958;28;19978;-68
2021/05/06 12:18:03;;;;;;;;;;;;;;;;;;5062486;28;19982;-69
2021/05/06 12:20:29;;;;;;;;;;;;;;;;;;5063801;28;20017;-70
2021/05/06 12:22:56;;;;;;;;;;;;;;;;;;5062100;28;19947;-68
2021/05/06 12:25:22;;;;;;;;;;;;;;;;;;5065222;28;19983;-69
2021/05/06 12:27:49;;;;;;;;;;;;;;;;;;5061343;28;20034;-66
2021/05/06 12:30:15;;;;;;;;;;;;;;;;;;5063780;28;20015;-70
2021/05/06 12:32:43;;;;;;;;;;;;;;;;;;5078032;22;20068;-66
2021/05/06 12:35:09;;;;;;;;;;;;;;;;;;5048556;28;19929;-67
2021/05/06 12:37:37;;;;;;;;;;;;;;;;;;5045547;28;19963;-66
2021/05/06 12:40:05;;;;;;;;;;;;;;;;;;5049260;28;19954;-66
2021/05/06 12:42:32;;;;;;;;;;;;;;;;;;5046439;28;19982;-66
2021/05/06 12:44:58;;;;;;;;;;;;;;;;;;5048840;28;19924;-67
2021/05/06 12:47:27;;;;;;;;;;;;;;;;;;5046167;28;20359;-66
2021/05/06 12:49:53;;;;;;;;;;;;;;;;;;5046202;28;20418;-67
2021/05/06 12:52:20;;;;;;;;;;;;;;;;;;5046566;28;19931;-67
2021/05/06 12:54:46;;;;;;;;;;;;;;;;;;5046731;28;20020;-66
2021/05/06 12:57:13;;;;;;;;;;;;;;;;;;5039345;28;19976;-66
2021/05/06 12:59:39;;;;;;;;;;;;;;;;;;5048804;28;19931;-66
2021/05/06 13:02:06;;;;;;;;;;;;;;;;;;5048625;28;19947;-66
2021/05/06 13:04:32;;;;;;;;;;;;;;;;;;5048717;28;19939;-67
2021/05/06 13:06:59;;;;;;;;;;;;;;;;;;5039217;28;19964;-65
2021/05/06 13:09:25;;;;;;;;;;;;;;;;;;5047832;28;19929;-66
2021/05/06 13:11:51;;;;;;;;;;;;;;;;;;5045838;28;19932;-65
2021/05/06 13:14:18;;;;;;;;;;;;;;;;;;5039760;28;19925;-66
2021/05/06 13:16:46;;;;;;;;;;;;;;;;;;5048922;28;19929;-65
2021/05/06 13:19:12;;;;;;;;;;;;;;;;;;5048401;28;19924;-65
2021/05/06 13:21:39;;;;;;;;;;;;;;;;;;5049744;28;19925;-66
2021/05/06 13:24:07;;;;;;;;;;;;;;;;;;5049383;28;20016;-65
2021/05/06 13:26:34;;;;;;;;;;;;;;;;;;5040678;28;20023;-67
2021/05/06 13:29:00;;;;;;;;;;;;;;;;;;5048787;28;20273;-67
2021/05/06 13:31:27;;;;;;;;;;;;;;;;;;5049983;28;20313;-66
2021/05/06 13:33:53;;;;;;;;;;;;;;;;;;5050605;28;19933;-65
2021/05/06 13:36:21;;;;;;;;;;;;;;;;;;5047241;28;19925;-65
2021/05/06 13:38:47;;;;;;;;;;;;;;;;;;5050557;28;19970;-67
2021/05/06 13:41:14;;;;;;;;;;;;;;;;;;5051378;28;20016;-66
2021/05/06 13:43:40;;;;;;;;;;;;;;;;;;5051063;28;20078;-66
2021/05/06 13:46:07;;;;;;;;;;;;;;;;;;5040648;28;19929;-67
2021/05/06 13:48:33;;;;;;;;;;;;;;;;;;5048161;28;19931;-65
2021/05/06 13:51:00;;;;;;;;;;;;;;;;;;5051987;28;19935;-67
2021/05/06 13:53:26;;;;;;;;;;;;;;;;;;5049288;28;19940;-64
2021/05/06 13:55:53;;;;;;;;;;;;;;;;;;5040334;28;19929;-64
2021/05/06 13:58:22;;;;;;;;;;;;;;;;;;5046820;28;19931;-64
2021/05/06 14:00:48;;;;;;;;;;;;;;;;;;5048396;28;19939;-65
2021/05/06 14:03:15;;;;;;;;;;;;;;;;;;5049903;28;19924;-65
2021/05/06 14:05:41;;;;;;;;;;;;;;;;;;5046603;28;20759;-64
2021/05/06 14:08:08;;;;;;;;;;;;;;;;;;5043088;28;19967;-65
2021/05/06 14:10:35;;;;;;;;;;;;;;;;;;5049933;28;19925;-64
2021/05/06 14:13:01;;;;;;;;;;;;;;;;;;5045025;28;20381;-65
2021/05/06 14:15:28;;;;;;;;;;;;;;;;;;5044114;28;20588;-65
2021/05/06 14:17:54;;;;;;;;;;;;;;;;;;5043310;28;20019;-67
2021/05/06 14:20:21;;;;;;;;;;;;;;;;;;5049410;28;19925;-64
2021/05/06 14:22:47;;;;;;;;;;;;;;;;;;5049416;28;20012;-66
2021/05/06 14:25:14;;;;;;;;;;;;;;;;;;5048438;28;20277;-67
2021/05/06 14:27:40;;;;;;;;;;;;;;;;;;5042211;28;20046;-66
2021/05/06 14:30:07;;;;;;;;;;;;;;;;;;5048691;28;20356;-66
2021/05/06 14:32:33;;;;;;;;;;;;;;;;;;5048750;28;19958;-68
2021/05/06 14:35:00;;;;;;;;;;;;;;;;;;5050721;28;19932;-66
2021/05/06 14:37:26;;;;;;;;;;;;;;;;;;5041368;28;20318;-63
2021/05/06 14:39:53;;;;;;;;;;;;;;;;;;5048116;28;19924;-66
2021/05/06 14:42:20;;;;;;;;;;;;;;;;;;5046300;28;19925;-67
2021/05/06 14:44:46;;;;;;;;;;;;;;;;;;5043938;28;19935;-65
2021/05/06 14:47:13;;;;;;;;;;;;;;;;;;5044310;28;19933;-64
2021/05/06 14:49:39;;;;;;;;;;;;;;;;;;5044873;28;19925;-65
2021/05/06 14:52:05;;;;;;;;;;;;;;;;;;5045520;28;19980;-64
2021/05/06 14:54:32;;;;;;;;;;;;;;;;;;5042509;28;19978;-65
2021/05/06 14:56:58;;;;;;;;;;;;;;;;;;5039707;28;19931;-64
2021/05/06 14:59:25;;;;;;;;;;;;;;;;;;5039791;28;19929;-66
2021/05/06 15:01:51;;;;;;;;;;;;;;;;;;5044102;28;19929;-65
2021/05/06 15:04:18;;;;;;;;;;;;;;;;;;5043937;28;20422;-65
2021/05/06 15:06:44;;;;;;;;;;;;;;;;;;5042274;28;19932;-67
2021/05/06 15:09:11;;;;;;;;;;;;;;;;;;5042403;28;19972;-66
2021/05/06 15:11:37;;;;;;;;;;;;;;;;;;5042368;28;19929;-66
2021/05/06 15:14:04;;;;;;;;;;;;;;;;;;5040471;28;19925;-67
2021/05/06 15:16:31;;;;;;;;;;;;;;;;;;5046170;28;19925;-66
2021/05/06 15:18:57;;;;;;;;;;;;;;;;;;5046282;28;19925;-64
2021/05/06 15:21:24;;;;;;;;;;;;;;;;;;5046368;28;20381;-64
2021/05/06 15:23:50;;;;;;;;;;;;;;;;;;5047816;28;20326;-64
2021/05/06 15:26:17;;;;;;;;;;;;;;;;;;5050087;28;19929;-64
2021/05/06 15:28:43;;;;;;;;;;;;;;;;;;5045147;28;20019;-66
2021/05/06 15:31:10;;;;;;;;;;;;;;;;;;5046259;28;20181;-64
2021/05/06 15:33:36;;;;;;;;;;;;;;;;;;5047297;28;20708;-66
2021/05/06 15:36:03;;;;;;;;;;;;;;;;;;5041589;28;20007;-65
2021/05/06 15:38:29;;;;;;;;;;;;;;;;;;5049021;28;19924;-65
2021/05/06 15:40:56;;;;;;;;;;;;;;;;;;5049091;28;20460;-67
2021/05/06 15:43:22;;;;;;;;;;;;;;;;;;5046888;28;19925;-66
2021/05/06 15:45:49;;;;;;;;;;;;;;;;;;5046834;28;19928;-67
2021/05/06 15:48:15;;;;;;;;;;;;;;;;;;5045096;28;19998;-66
2021/05/06 15:50:42;;;;;;;;;;;;;;;;;;5042088;28;19925;-67
2021/05/06 15:53:08;;;;;;;;;;;;;;;;;;5045768;28;19931;-68
2021/05/06 15:55:35;;;;;;;;;;;;;;;;;;5040118;28;19931;-66
2021/05/06 15:58:02;;;;;;;;;;;;;;;;;;5039679;28;19933;-66
2021/05/06 16:00:28;;;;;;;;;;;;;;;;;;5041198;28;19963;-66
2021/05/06 16:02:58;;;;;;;;;;;;;;;;;;5047611;28;20032;-67
2021/05/06 16:05:26;;;;;;;;;;;;;;;;;;5046455;28;20393;-66
2021/05/06 16:07:53;;;;;;;;;;;;;;;;;;5042411;28;19979;-66
2021/05/06 16:10:19;;;;;;;;;;;;;;;;;;5045250;28;19925;-67
2021/05/06 16:12:46;;;;;;;;;;;;;;;;;;5044103;28;19928;-66
2021/05/06 16:15:12;;;;;;;;;;;;;;;;;;5040896;28;19929;-68
2021/05/06 16:17:39;;;;;;;;;;;;;;;;;;5040616;28;20031;-66
2021/05/06 16:20:11;;;;;;;;;;;;;;;;;;5046534;28;19928;-66
2021/05/06 16:22:37;;;;;;;;;;;;;;;;;;5044418;28;19936;-65
2021/05/06 16:25:04;;;;;;;;;;;;;;;;;;5044771;28;19948;-66
2021/05/06 16:27:30;;;;;;;;;;;;;;;;;;5041467;28;19939;-67
2021/05/06 16:29:57;;;;;;;;;;;;;;;;;;5042352;28;19933;-66
2021/05/06 16:32:23;;;;;;;;;;;;;;;;;;5045403;28;19964;-66
2021/05/06 16:34:50;;;;;;;;;;;;;;;;;;5044120;28;19928;-65
2021/05/06 16:37:24;;;;;;;;;;;;;;;;;;5044052;28;19943;-66
2021/05/06 16:39:59;;;;;;;;;;;;;;;;;;5043436;28;19928;-66
2021/05/06 16:42:45;;;;;;;;;;;;;;;;;;5044125;28;19925;-66
2021/05/06 16:45:11;;;;;;;;;;;;;;;;;;5042937;28;19931;-66
2021/05/06 16:47:38;;;;;;;;;;;;;;;;;;5046840;28;20027;-67
2021/05/06 16:50:04;;;;;;;;;;;;;;;;;;5043546;28;21008;-67
2021/05/06 16:52:31;;;;;;;;;;;;;;;;;;5046388;28;19931;-67
2021/05/06 16:54:57;;;;;;;;;;;;;;;;;;5044058;28;19932;-67
2021/05/06 16:57:23;;;;;;;;;;;;;;;;;;5047003;28;19925;-67
2021/05/06 16:59:52;;;;;;;;;;;;;;;;;;5045519;28;20389;-68
2021/05/06 17:02:18;;;;;;;;;;;;;;;;;;5044749;28;19932;-67
2021/05/06 17:04:45;;;;;;;;;;;;;;;;;;5045858;28;19936;-67
2021/05/06 17:07:12;;;;;;;;;;;;;;;;;;5046606;28;19979;-66
2021/05/06 17:09:38;;;;;;;;;;;;;;;;;;5043962;28;19924;-66
2021/05/06 17:12:05;;;;;;;;;;;;;;;;;;5050565;28;20223;-66
2021/05/06 17:14:31;;;;;;;;;;;;;;;;;;5047103;28;19975;-67
2021/05/06 17:16:58;;;;;;;;;;;;;;;;;;5044432;28;20415;-66
2021/05/06 17:19:25;;;;;;;;;;;;;;;;;;5049426;28;19936;-67
2021/05/06 17:21:51;;;;;;;;;;;;;;;;;;5047576;28;20122;-66
2021/05/06 17:24:18;;;;;;;;;;;;;;;;;;5047981;28;19983;-68
2021/05/06 17:26:44;;;;;;;;;;;;;;;;;;5047134;28;19924;-67
2021/05/06 17:29:12;;;;;;;;;;;;;;;;;;5042178;28;20013;-67
2021/05/06 17:31:39;;;;;;;;;;;;;;;;;;5049963;28;19979;-66
2021/05/06 17:34:05;;;;;;;;;;;;;;;;;;5043892;28;19929;-67
2021/05/06 17:36:31;;;;;;;;;;;;;;;;;;5047260;28;20584;-67
2021/05/06 17:38:58;;;;;;;;;;;;;;;;;;5048565;28;19925;-67
2021/05/06 17:41:25;;;;;;;;;;;;;;;;;;5046800;28;20016;-67
2021/05/06 17:43:51;;;;;;;;;;;;;;;;;;5046428;28;19997;-68
2021/05/06 17:46:18;;;;;;;;;;;;;;;;;;5046835;28;19933;-68
2021/05/06 17:48:44;;;;;;;;;;;;;;;;;;5049016;28;19935;-64
2021/05/06 17:51:11;;;;;;;;;;;;;;;;;;5048086;28;20397;-67
2021/05/06 17:53:37;;;;;;;;;;;;;;;;;;5045731;28;19924;-66
2021/05/06 17:56:03;;;;;;;;;;;;;;;;;;5046621;28;20296;-67
2021/05/06 17:58:31;;;;;;;;;;;;;;;;;;5050428;28;20025;-68
2021/05/06 18:00:58;;;;;;;;;;;;;;;;;;5045657;28;20440;-68
2021/05/06 18:03:24;;;;;;;;;;;;;;;;;;5047701;28;20451;-68
2021/05/06 18:05:51;;;;;;;;;;;;;;;;;;5048183;28;20381;-66
2021/05/06 18:08:23;;;;;;;;;;;;;;;;;;5044209;28;19960;-67
2021/05/06 18:10:52;;;;;;;;;;;;;;;;;;5043732;28;20015;-66
2021/05/06 18:13:18;;;;;;;;;;;;;;;;;;5047009;28;19932;-67
2021/05/06 18:15:45;;;;;;;;;;;;;;;;;;5046055;28;19928;-67
2021/05/06 18:18:11;;;;;;;;;;;;;;;;;;5045854;28;19943;-68
2021/05/06 18:20:38;;;;;;;;;;;;;;;;;;5050129;28;19931;-65
2021/05/06 18:23:04;;;;;;;;;;;;;;;;;;5043632;28;19925;-67
2021/05/06 18:25:31;;;;;;;;;;;;;;;;;;5045701;28;19968;-66
2021/05/06 18:27:59;;;;;;;;;;;;;;;;;;5047808;28;19933;-67
2021/05/06 18:30:26;;;;;;;;;;;;;;;;;;5046135;28;20298;-67
2021/05/06 18:32:54;;;;;;;;;;;;;;;;;;5074783;23;20611;-66
2021/05/06 18:35:20;;;;;;;;;;;;;;;;;;5040626;28;19931;-66
2021/05/06 18:37:48;;;;;;;;;;;;;;;;;;5027293;28;20399;-66
2021/05/06 18:40:15;;;;;;;;;;;;;;;;;;5036464;28;21000;-69
2021/05/06 18:42:43;;;;;;;;;;;;;;;;;;5037842;28;20360;-68
2021/05/06 18:45:09;;;;;;;;;;;;;;;;;;5010202;28;19930;-70
2021/05/06 18:47:36;;;;;;;;;;;;;;;;;;5009279;28;20005;-70
2021/05/06 18:50:02;;;;;;;;;;;;;;;;;;5009367;28;19940;-69
2021/05/06 18:52:29;;;;;;;;;;;;;;;;;;5006346;28;19925;-69
2021/05/06 18:54:55;;;;;;;;;;;;;;;;;;5010492;28;19932;-68
2021/05/06 18:57:22;;;;;;;;;;;;;;;;;;5009395;28;19925;-68
2021/05/06 18:59:48;;;;;;;;;;;;;;;;;;5005948;28;19964;-68
2021/05/06 19:02:15;;;;;;;;;;;;;;;;;;5003298;28;19925;-67
2021/05/06 19:04:44;;;;;;;;;;;;;;;;;;5006784;28;20024;-69
2021/05/06 19:07:11;;;;;;;;;;;;;;;;;;5009847;28;20108;-69